Latest Weather Observations for Shark Bay Airport

IDW60801

Issued at 6:33 am WST Friday 21 July 2017 (issued every 30 minutes, with the page automatically refreshed every 10 minutes)

About weather observations | Map of weather stations | Latest weather observations for WA | Other Formats
Station Details ID: 006105 Name: SHARK BAY AIRPORT Lat: -25.89 Lon: 113.58 Height: 33.8 m
Data from the previous 72 hours. | See also: Recent months at Shark Bay Airport
Date/Time
WST
Temp
°C
App
Temp
°C
Dew
Point
°C
Rel
Hum
%
Delta-T
°C
Wind Press
QNH
hPa
Press
MSL
hPa
Rain since
9am
mm
Dir  Spd
km/h
Gust
km/h
Spd
kts
Gust
kts
21/06:30am 11.3 9.2 8.2 81 1.5 E 9 9 5 5 1017.6 1017.6 0.2
21/06:00am 10.9 9.1 7.8 81 1.5 ENE 7 9 4 5 1017.3 1017.3 0.2
21/05:30am 12.1 10.3 9.5 84 1.3 NE 9 9 5 5 1017.1 1017.1 0.2
21/05:00am 11.7 10.2 9.1 84 1.3 SE 7 7 4 4 1017.0 1017.0 0.2
21/04:30am 13.2 13.2 11.3 88 1.0 SE 2 6 1 3 1017.0 1017.0 0.2
21/04:00am 12.3 12.0 10.2 87 1.1 SE 2 7 1 4 1017.0 1017.0 0.2
21/03:30am 11.9 11.8 9.6 86 1.2 CALM 0 0 0 0 1017.0 1017.0 0.2
21/03:00am 11.5 11.3 9.2 86 1.2 CALM 0 0 0 0 1017.1 1017.1 0.2
21/02:30am 9.6 8.9 6.9 83 1.3 CALM 0 0 0 0 1017.4 1017.4 0.2
21/02:00am 9.4 8.7 7.0 85 1.1 CALM 0 0 0 0 1017.4 1017.4 0.2
21/01:30am 11.4 11.3 9.5 88 1.0 CALM 0 0 0 0 1017.6 1017.6 0.2
21/01:00am 11.4 10.1 9.1 86 1.1 NNE 6 7 3 4 1017.6 1017.6 0.2
21/12:30am 11.1 9.4 8.3 83 1.4 SSE 7 7 4 4 1017.7 1017.7 0.2
21/12:00am 10.6 8.6 6.9 78 1.7 N 7 9 4 5 1017.8 1017.8 0.2
 
Date/Time
WST
Temp
°C
App
Temp
°C
Dew
Point
°C
Rel
Hum
%
Delta-T
°C
Wind Press
QNH
hPa
Press
MSL
hPa
Rain since
9am
mm
Dir  Spd
km/h
Gust
km/h
Spd
kts
Gust
kts
20/11:30pm 11.9 11.6 8.6 80 1.6 CALM 0 0 0 0 1017.9 1017.9 0.2
20/11:00pm 12.2 11.8 8.3 77 1.9 CALM 0 0 0 0 1018.0 1018.0 0.2
20/10:30pm 12.9 11.3 8.2 73 2.3 SW 6 7 3 4 1018.1 1018.1 0.2
20/10:00pm 14.0 12.5 9.2 73 2.4 SW 7 9 4 5 1018.0 1018.0 0.2
20/09:30pm 14.3 12.3 8.7 69 2.8 WSW 9 9 5 5 1018.0 1018.0 0.2
20/09:00pm 15.1 13.5 8.8 66 3.2 SW 7 9 4 5 1017.9 1017.9 0.2
20/08:30pm 16.4 15.3 9.8 65 3.5 SSW 6 7 3 4 1017.8 1017.8 0.2
20/08:00pm 17.4 16.4 11.0 66 3.4 SSW 7 9 4 5 1017.6 1017.6 0.2
20/07:30pm 17.2 15.3 10.6 65 3.5 SSW 11 13 6 7 1017.5 1017.5 0.2
20/07:00pm 17.3 15.3 10.2 63 3.8 SSW 11 13 6 7 1017.2 1017.2 0.2
20/06:30pm 18.0 16.3 9.9 59 4.3 WSW 9 11 5 6 1017.1 1017.1 0.2
20/06:00pm 18.3 16.5 9.6 57 4.6 SW 9 11 5 6 1017.0 1017.0 0.2
20/05:30pm 18.1 15.5 9.5 57 4.5 WSW 13 15 7 8 1017.0 1017.0 0.2
20/05:00pm 18.8 15.5 8.2 50 5.5 WSW 15 20 8 11 1016.7 1016.7 0.2
20/04:30pm 20.0 16.5 8.7 48 5.9 SW 17 24 9 13 1016.4 1016.4 0.2
20/04:00pm 20.3 16.8 8.6 47 6.1 SW 17 28 9 15 1016.4 1016.4 0.2
20/03:30pm 21.4 18.4 9.3 46 6.5 SW 15 26 8 14 1016.2 1016.2 0.2
20/03:00pm 21.3 17.5 9.2 46 6.4 SW 19 28 10 15 1016.4 1016.4 0.2
20/02:30pm 21.5 17.8 9.4 46 6.5 WSW 19 24 10 13 1016.4 1016.4 0.2
20/02:00pm 20.6 17.1 8.9 47 6.2 SW 17 22 9 12 1016.4 1016.4 0.2
20/01:30pm 20.5 16.5 8.2 45 6.4 SW 19 28 10 15 1016.4 1016.4 0.2
20/01:00pm 20.2 17.6 9.2 49 5.8 SW 13 19 7 10 1016.9 1016.9 0.2
20/12:30pm 20.5 17.4 8.8 47 6.2 SW 15 20 8 11 1017.2 1017.2 0.2
20/12:00pm 21.9 18.9 9.4 45 6.7 WSW 15 28 8 15 1017.7 1017.7 0.2
20/11:30am 20.9 17.1 9.8 49 6.0 WSW 20 28 11 15 1018.3 1018.3 0.2
20/11:00am 20.1 16.0 10.2 53 5.3 SW 22 33 12 18 1018.8 1018.8 0.0
20/10:30am 20.8 17.5 10.9 53 5.4 W 19 24 10 13 1019.0 1019.0 0.0
20/10:00am 19.7 16.6 11.5 59 4.5 W 19 24 10 13 1018.9 1018.9 0.0
20/09:30am 19.6 17.0 13.3 67 3.6 WSW 19 30 10 16 1018.7 1018.7 0.0
20/09:00am 18.1 17.5 13.6 75 2.6 SW 9 13 5 7 1018.1 1018.1 2.2
20/08:30am 16.8 14.4 13.7 82 1.8 WSW 19 26 10 14 1018.0 1018.0 2.2
20/08:00am 13.0 12.6 11.2 89 0.9 N 4 9 2 5 1017.5 1017.5 2.2
20/07:30am 13.0 13.1 11.4 90 0.8 N 2 11 1 6 1017.3 1017.3 2.2
20/07:00am 11.2 9.6 8.9 86 1.1 SSE 7 9 4 5 1017.1 1017.1 2.2
20/06:30am 12.8 11.4 10.9 88 1.0 W 9 9 5 5 1017.0 1017.0 2.2
20/06:00am 13.5 11.9 11.6 88 1.0 WNW 11 13 6 7 1016.9 1016.9 2.2
20/05:30am 13.2 11.9 11.1 87 1.1 W 9 9 5 5 1016.9 1016.9 2.2
20/05:00am 14.0 12.2 12.2 89 1.0 W 13 19 7 10 1016.9 1016.9 2.2
20/04:30am 13.4 10.9 12.3 93 0.6 WSW 17 24 9 13 1017.1 1017.1 2.2
20/04:29am 13.1 10.5 12.0 93 0.6 WSW 17 24 9 13 1017.1 1017.1 2.2
20/04:00am 7.9 5.2 5.7 86 1.0 WSW 9 9 5 5 1016.6 1016.6 2.2
20/03:30am 8.8 6.7 6.8 87 0.9 WSW 7 9 4 5 1016.6 1016.6 2.2
20/03:00am 9.8 7.6 7.9 88 0.9 WSW 9 9 5 5 1016.9 1016.9 2.2
20/02:30am 10.6 8.7 8.9 89 0.8 WSW 9 11 5 6 1016.9 1016.9 2.2
20/02:00am 8.7 7.4 6.0 83 1.2 WSW 2 7 1 4 1017.0 1017.0 2.2
20/01:30am 10.1 9.1 7.5 84 1.2 WNW 2 7 1 4 1017.2 1017.2 2.2
20/01:00am 10.9 8.9 8.5 85 1.2 W 9 11 5 6 1017.4 1017.4 2.2
20/12:30am 11.2 9.2 8.6 84 1.3 W 9 11 5 6 1017.6 1017.6 2.2
20/12:00am 11.5 9.6 8.9 84 1.3 WSW 9 13 5 7 1017.7 1017.7 2.2
 
Date/Time
WST
Temp
°C
App
Temp
°C
Dew
Point
°C
Rel
Hum
%
Delta-T
°C
Wind Press
QNH
hPa
Press
MSL
hPa
Rain since
9am
mm
Dir  Spd
km/h
Gust
km/h
Spd
kts
Gust
kts
19/11:30pm 11.5 9.1 8.7 83 1.4 WSW 11 11 6 6 1018.0 1018.0 2.2
19/11:00pm 11.7 9.4 9.1 84 1.3 WSW 11 13 6 7 1018.2 1018.2 2.2
19/10:30pm 12.2 10.4 9.6 84 1.3 WSW 9 11 5 6 1018.2 1018.2 2.2
19/10:00pm 12.5 10.8 9.7 83 1.4 WSW 9 11 5 6 1018.0 1018.0 2.2
19/09:30pm 12.8 10.7 9.6 81 1.6 WSW 11 15 6 8 1018.0 1018.0 2.2
19/09:00pm 13.5 11.8 9.9 79 1.9 SW 9 11 5 6 1017.8 1017.8 2.2
19/08:30pm 13.4 11.5 9.1 75 2.2 WSW 9 11 5 6 1017.8 1017.8 2.2
19/08:00pm 14.4 12.5 9.2 71 2.7 SW 9 13 5 7 1017.7 1017.7 2.2
19/07:30pm 15.8 13.4 9.9 68 3.1 SW 13 15 7 8 1017.7 1017.7 2.2
19/07:00pm 16.6 13.9 10.5 67 3.2 SW 15 19 8 10 1017.7 1017.7 2.2
19/06:30pm 17.3 14.4 10.9 66 3.4 SW 17 20 9 11 1017.6 1017.6 2.2
19/06:00pm 18.3 15.5 11.4 64 3.8 SW 17 22 9 12 1017.5 1017.5 2.2
19/05:30pm 18.6 15.6 11.9 65 3.7 SW 19 24 10 13 1017.3 1017.3 2.2
19/05:00pm 18.9 16.4 12.2 65 3.7 SW 17 26 9 14 1017.1 1017.1 2.2
19/04:30pm 19.3 16.4 12.3 64 3.9 SW 19 26 10 14 1017.0 1017.0 2.2
19/04:00pm 19.5 16.3 12.0 62 4.2 SW 20 28 11 15 1017.0 1017.0 2.2
19/03:30pm 20.0 17.4 13.2 65 3.9 SW 19 26 10 14 1016.9 1016.9 2.2
19/03:00pm 20.4 17.7 13.6 65 3.9 SW 20 28 11 15 1016.8 1016.8 2.0
19/02:30pm 20.4 17.9 13.6 65 3.9 SW 19 30 10 16 1016.8 1016.8 2.0
19/02:00pm 19.9 18.2 14.7 72 3.0 SW 17 24 9 13 1017.0 1017.0 2.0
19/01:30pm 20.3 17.9 14.4 69 3.4 SSW 20 26 11 14 1017.2 1017.2 2.0
19/01:00pm 19.3 17.5 15.4 78 2.3 SSW 19 24 10 13 1017.4 1017.4 2.0
19/12:30pm 18.9 17.7 16.0 83 1.7 SW 17 22 9 12 1017.8 1017.8 2.0
19/12:00pm 18.0 16.5 16.2 89 1.1 SSW 19 26 10 14 1018.4 1018.4 2.0
19/11:30am 17.9 15.7 15.9 88 1.2 SSW 22 26 12 14 1018.8 1018.8 2.0
19/11:00am 18.8 15.5 14.1 74 2.7 SW 24 32 13 17 1019.3 1019.3 0.0
19/10:30am 19.4 18.0 14.6 74 2.8 SSW 15 24 8 13 1019.3 1019.3 0.0
19/10:00am 19.9 19.4 16.0 78 2.3 SSE 13 17 7 9 1019.3 1019.3 0.0
19/09:30am 19.1 18.6 16.0 82 1.8 S 13 17 7 9 1019.2 1019.2 0.0
19/09:00am 18.3 18.8 16.6 90 1.0 SSE 9 11 5 6 1019.0 1019.0 0.0
19/08:30am 17.1 17.8 16.0 93 0.6 SSE 7 9 4 5 1019.0 1019.0 0.0
19/08:00am 16.8 18.8 16.0 95 0.5 CALM 0 0 0 0 1018.6 1018.6 0.0
19/07:30am 15.7 16.1 14.7 94 0.6 N 6 9 3 5 1018.6 1018.6 0.0
19/07:00am 13.4 12.3 12.0 91 0.8 SSW 9 13 5 7 1018.6 1018.6 0.0
19/06:30am 13.5 12.4 12.1 91 0.8 SW 9 9 5 5 1018.4 1018.4 0.0
19/06:00am 15.3 14.9 14.0 92 0.7 S 9 11 5 6 1018.1 1018.1 0.0
19/05:30am 14.3 13.5 12.9 91 0.8 S 9 9 5 5 1018.0 1018.0 0.0
19/05:00am 12.4 11.3 10.6 89 0.9 SW 7 11 4 6 1017.8 1017.8 0.0
19/04:30am 14.1 13.6 12.5 90 0.9 W 7 9 4 5 1017.7 1017.7 0.0
19/04:00am 12.4 11.2 10.3 87 1.1 N 7 9 4 5 1017.8 1017.8 0.0
19/03:30am 12.2 10.6 10.3 88 1.0 N 9 9 5 5 1017.9 1017.9 0.0
19/03:00am 12.1 10.9 10.2 88 1.0 N 7 9 4 5 1018.0 1018.0 0.0
19/02:30am 12.2 10.7 10.4 89 0.9 N 9 9 5 5 1018.2 1018.2 0.0
19/02:00am 12.2 11.0 10.4 89 0.9 N 7 7 4 4 1018.5 1018.5 0.0
19/01:30am 11.6 10.4 9.7 88 1.0 N 6 7 3 4 1018.4 1018.4 0.0
19/01:00am 11.5 10.1 9.4 87 1.1 N 7 9 4 5 1018.4 1018.4 0.0
19/12:30am 11.6 10.2 9.5 87 1.1 NNW 7 9 4 5 1018.6 1018.6 0.0
19/12:00am 12.0 10.7 9.9 87 1.1 WNW 7 7 4 4 1018.5 1018.5 0.0
 
Date/Time
WST
Temp
°C
App
Temp
°C
Dew
Point
°C
Rel
Hum
%
Delta-T
°C
Wind Press
QNH
hPa
Press
MSL
hPa
Rain since
9am
mm
Dir  Spd
km/h
Gust
km/h
Spd
kts
Gust
kts
18/11:30pm 12.0 10.6 9.7 86 1.2 WNW 7 7 4 4 1018.6 1018.6 0.0
18/11:00pm 13.5 12.8 11.4 87 1.1 WNW 6 7 3 4 1018.8 1018.8 0.0
18/10:30pm 13.4 13.7 10.9 85 1.3 CALM 0 0 0 0 1018.8 1018.8 0.0
18/10:00pm 15.5 15.5 13.5 88 1.1 WNW 6 7 3 4 1019.0 1019.0 0.0
18/09:30pm 14.2 13.5 11.5 84 1.4 WNW 6 7 3 4 1018.9 1018.9 0.0
18/09:00pm 15.6 14.4 12.9 84 1.5 W 11 11 6 6 1019.1 1019.1 0.0
18/08:30pm 15.8 14.9 12.7 82 1.7 W 9 11 5 6 1018.9 1018.9 0.0
18/08:00pm 16.6 15.9 13.3 81 1.8 WSW 9 11 5 6 1018.6 1018.6 0.0
18/07:30pm 17.1 16.2 13.6 80 2.0 W 11 13 6 7 1018.7 1018.7 0.0
18/07:00pm 17.0 16.0 12.3 74 2.6 WSW 9 11 5 6 1018.5 1018.5 0.0
18/06:30pm 18.2 16.9 12.4 69 3.2 W 11 13 6 7 1018.0 1018.0 0.0
18/06:00pm 19.3 18.1 11.6 61 4.2 W 9 13 5 7 1017.6 1017.6 0.0
18/05:30pm 21.3 19.1 12.2 56 5.1 WSW 15 19 8 10 1017.5 1017.5 0.0
18/05:00pm 22.4 19.5 10.9 48 6.4 WSW 17 20 9 11 1017.4 1017.4 0.0
18/04:30pm 23.5 20.8 10.2 43 7.3 WSW 15 22 8 12 1017.4 1017.4 0.0
18/04:00pm 24.5 21.1 10.4 41 7.8 W 19 26 10 14 1017.3 1017.3 0.0
18/03:30pm 24.3 21.9 14.4 54 5.9 W 20 30 11 16 1017.3 1017.3 0.0
18/03:00pm 24.0 21.2 14.4 55 5.7 WSW 22 28 12 15 1017.2 1017.2 0.0
18/02:30pm 25.0 22.6 14.5 52 6.3 WSW 20 28 11 15 1017.1 1017.1 0.0
18/02:00pm 24.7 21.3 12.6 47 7.0 WSW 22 30 12 16 1017.2 1017.2 0.0
18/01:30pm 26.2 22.8 10.4 37 8.8 WNW 19 26 10 14 1017.2 1017.2 0.0
18/01:00pm 26.1 21.7 9.0 34 9.3 WNW 22 30 12 16 1017.6 1017.6 0.0
18/12:30pm 25.3 21.0 10.7 40 8.2 WNW 24 30 13 16 1018.0 1018.0 0.0
18/12:00pm 26.4 21.3 9.3 34 9.4 WNW 26 33 14 18 1018.3 1018.3 0.0
18/11:30am 27.0 22.2 7.5 29 10.4 NNW 22 30 12 16 1018.5 1018.5 0.0
18/11:00am 26.4 22.1 6.9 29 10.3 NNW 19 28 10 15 1018.9 1018.9 0.0
18/10:30am 25.0 20.2 7.2 32 9.4 N 22 33 12 18 1019.2 1019.2 0.0
18/10:00am 23.7 19.7 8.9 39 7.9 N 20 28 11 15 1019.3 1019.3 0.0
18/09:30am 21.6 19.4 10.7 50 6.0 NNW 13 17 7 9 1019.5 1019.5 0.0
18/09:00am 19.1 16.7 11.4 61 4.2 NNE 15 20 8 11 1019.3 1019.3 0.2
18/08:30am 15.6 13.9 12.4 81 1.8 NE 13 15 7 8 1019.2 1019.2 0.2
18/08:00am 12.4 10.7 11.3 93 0.6 NE 11 13 6 7 1018.7 1018.7 0.2
18/07:30am 9.6 6.4 8.5 93 0.5 NE 15 17 8 9 1018.3 1018.3 0.2
18/07:00am 8.6 5.1 7.4 92 0.6 E 15 15 8 8 1018.0 1018.0 0.2

Other Formats:

Comma delimited format used in spreadsheet applications
http://www.bom.gov.au/fwo/IDW60801/IDW60801.95402.axf

JavaScript Object Notation format (JSON) in row-major order
http://www.bom.gov.au/fwo/IDW60801/IDW60801.95402.json